Terminal Aerodrome Forecast
Issued by NWS

Home | Current Version | Previous Version | Text Only | Print | Product List | Glossary On
Versions: 1 2 3 4 5 6 7 8 9 10 11 12 13 14 15
000
FTUS43 KMQT 250520
TAFIWD
TAF
KIWD 250520Z 2506/2606 07007KT P6SM BKN008
     FM251400 07006KT P6SM BKN012
     FM251700 08007KT P6SM SCT020
     FM260200 09006KT P6SM BKN035
     FM260300 09006KT P6SM BKN030=

USA.gov is the U.S. government's official web portal to all federal, state and local government web resources and services.